Latest Coastal Weather Observations for St Lawrence

IDQ60701

Issued at 8:32 am EST Sunday 31 July 2016 (issued every 10 minutes, with the page automatically refreshed every 10 minutes)

About coastal observations | Map of coastal stations | Coastal observations for QLD | Marine services | Other Formats
Station Details ID: 033210 Name: ST LAWRENCE Lat: -22.35 Lon: 149.52 Height: 9.19 m
Data from the previous 72 hours. | See also: Recent months at St Lawrence
Date/Time
EST
Temp
°C
Wind Pressure Rain since
9am
mm
Weather Cloud Vis
km
Sea
Height
m
Swell
Dir  Spd
kts
Gust
kts
hPa Trend Height
m
Period
s
Dir
31/08:30am 15.7 SW 1 4 1019.8 - 0.0 - - - - - - -
31/08:00am 13.6 CALM 0 0 1019.7 - 0.0 - - - - - - -
31/07:30am 11.6 WSW 1 4 1019.4 - 0.0 - - - - - - -
31/07:00am 10.6 SW 3 4 1019.1 - 0.0 - - - - - - -
31/06:30am 9.9 SW 3 4 1018.8 - 0.0 - - - - - - -
31/06:00am 10.1 SW 4 5 1018.4 - 0.0 - - - - - - -
31/05:30am 10.2 SW 4 5 1018.1 - 0.0 - - - - - - -
31/05:00am 10.7 SSW 3 4 1017.9 - 0.0 - - - - - - -
31/04:30am 10.8 S 2 4 1017.9 - 0.0 - - - - - - -
31/04:00am 10.9 CALM 0 0 1018.0 - 0.0 - - - - - - -
31/03:30am 11.2 CALM 0 0 1018.1 - 0.0 - - - - - - -
31/03:00am 11.8 SW 3 4 1018.2 - 0.0 - - - - - - -
31/02:30am 11.2 SW 3 4 1018.4 - 0.0 - - - - - - -
31/02:00am 11.4 WSW 3 4 1018.6 - 0.0 - - - - - - -
31/01:30am 11.2 SW 3 4 1018.8 - 0.0 - - - - - - -
31/01:00am 11.9 SSW 4 5 1019.0 - 0.0 - - - - - - -
31/12:30am 12.7 SW 3 4 1019.3 - 0.0 - - - - - - -
31/12:00am 12.8 SSW 1 3 1019.4 - 0.0 - - - - - - -
 
Date/Time
EST
Temp
°C
Wind Pressure Rain since
9am
mm
Weather Cloud Vis
km
Sea
Height
m
Swell
Dir  Spd
kts
Gust
kts
hPa Trend Height
m
Period
s
Dir
30/11:30pm 13.6 WSW 3 5 1019.5 - 0.0 - - - - - - -
30/11:00pm 13.8 CALM 0 0 1019.6 - 0.0 - - - - - - -
30/10:30pm 13.9 WSW 3 4 1019.7 - 0.0 - - - - - - -
30/10:00pm 13.8 CALM 0 0 1019.6 - 0.0 - - - - - - -
30/09:30pm 14.9 CALM 0 0 1019.5 - 0.0 - - - - - - -
30/09:00pm 15.7 WSW 1 3 1019.5 - 0.0 - - - - - - -
30/08:30pm 15.9 CALM 0 0 1019.3 - 0.0 - - - - - - -
30/08:00pm 17.1 NE 2 4 1018.9 - 0.0 - - - - - - -
30/07:30pm 18.0 NE 4 5 1018.5 - 0.0 - - - - - - -
30/07:00pm 18.4 NE 4 6 1018.1 - 0.0 - - - - - - -
30/06:30pm 19.2 NE 4 5 1017.9 - 0.0 - - - - - - -
30/06:00pm 20.0 ENE 3 4 1017.4 - 0.0 - - - - - - -
30/05:30pm 21.7 NE 4 7 1017.1 - 0.0 - - - - - - -
30/05:00pm 23.0 NE 7 9 1016.9 - 0.0 - - - - - - -
30/04:30pm 23.8 ENE 6 10 1016.8 - 0.0 - - - - - - -
30/04:00pm 24.5 ENE 7 10 1016.6 - 0.0 - - - - - - -
30/03:30pm 24.4 ENE 5 8 1016.5 - 0.0 - - - - - - -
30/03:00pm 24.4 ESE 6 12 1016.6 - 0.0 - - - - - - -
30/02:30pm 24.3 ESE 6 11 1016.8 - 0.0 - - - - - - -
30/02:00pm 24.5 NNE 8 13 1017.0 - 0.0 - - - - - - -
30/01:30pm 24.4 SSE 5 8 1017.4 - 0.0 - - - - - - -
30/01:00pm 23.9 NE 4 9 1017.7 - 0.0 - - - - - - -
30/12:30pm 23.5 SE 7 11 1018.2 - 0.0 - - - - - - -
30/12:00pm 23.5 SE 5 9 1018.8 - 0.0 - - - - - - -
30/11:30am 23.6 SE 6 10 1019.6 - 0.0 - - - - - - -
30/11:00am 22.2 SSE 7 11 1020.0 - 0.0 - - - - - - -
30/10:30am 21.8 SE 6 10 1020.3 - 0.0 - - - - - - -
30/10:00am 20.4 SSE 6 10 1020.5 - 0.0 - - - - - - -
30/09:30am 19.2 S 8 10 1020.6 - 0.0 - - - - - - -
30/09:00am 17.9 S 9 13 1020.6 - 0.0 - - - - - - -
30/08:30am 16.7 S 4 7 1020.4 - 0.0 - - - - - - -
30/08:00am 13.9 WSW 1 3 1020.2 - 0.0 - - - - - - -
30/07:30am 12.1 SW 4 5 1020.2 - 0.0 - - - - - - -
30/07:00am 11.4 WSW 3 4 1019.9 - 0.0 - - - - - - -
30/06:30am 11.1 SW 3 4 1019.7 - 0.0 - - - - - - -
30/06:00am 10.5 CALM 0 2 1019.4 - 0.0 - - - - - - -
30/05:30am 10.9 SW 2 3 1019.2 - 0.0 - - - - - - -
30/05:00am 10.9 SW 3 4 1018.9 - 0.0 - - - - - - -
30/04:30am 11.1 SSW 4 5 1018.7 - 0.0 - - - - - - -
30/04:00am 11.3 SSW 1 3 1018.9 - 0.0 - - - - - - -
30/03:30am 11.7 SW 3 4 1018.9 - 0.0 - - - - - - -
30/03:00am 11.5 SW 1 3 1019.1 - 0.0 - - - - - - -
30/02:30am 12.2 S 1 3 1019.1 - 0.0 - - - - - - -
30/02:00am 12.5 S 3 4 1019.3 - 0.0 - - - - - - -
30/01:30am 12.3 CALM 0 0 1019.5 - 0.0 - - - - - - -
30/01:00am 12.1 CALM 0 3 1019.9 - 0.0 - - - - - - -
30/12:30am 12.8 SW 1 3 1020.1 - 0.0 - - - - - - -
30/12:00am 13.4 SW 3 4 1020.3 - 0.0 - - - - - - -
 
Date/Time
EST
Temp
°C
Wind Pressure Rain since
9am
mm
Weather Cloud Vis
km
Sea
Height
m
Swell
Dir  Spd
kts
Gust
kts
hPa Trend Height
m
Period
s
Dir
29/11:30pm 13.6 WSW 3 4 1020.6 - 0.0 - - - - - - -
29/11:00pm 13.4 WSW 2 3 1020.6 - 0.0 - - - - - - -
29/10:30pm 13.8 SSW 1 3 1020.6 - 0.0 - - - - - - -
29/10:00pm 14.7 SW 3 5 1020.7 - 0.0 - - - - - - -
29/09:30pm 14.7 CALM 0 0 1020.6 - 0.0 - - - - - - -
29/09:00pm 15.2 CALM 0 0 1020.5 - 0.0 - - - - - - -
29/08:30pm 16.4 SW 1 4 1020.3 - 0.0 - - - - - - -
29/08:00pm 16.7 CALM 0 0 1020.1 - 0.0 - - - - - - -
29/07:30pm 17.8 ENE 2 3 1019.7 - 0.0 - - - - - - -
29/07:00pm 16.5 CALM 0 0 1019.3 - 0.0 - - - - - - -
29/06:30pm 17.7 CALM 0 0 1018.9 - 0.0 - - - - - - -
29/06:00pm 18.1 CALM 0 0 1018.6 - 0.0 - - - - - - -
29/05:30pm 20.5 CALM 0 0 1018.5 - 0.0 - - - - - - -
29/05:00pm 22.3 CALM 0 2 1018.3 - 0.0 - - - - - - -
29/04:30pm 23.4 CALM 0 2 1018.3 - 0.0 - - - - - - -
29/04:00pm 23.4 NE 3 7 1018.3 - 0.0 - - - - - - -
29/03:30pm 23.1 NE 4 8 1018.2 - 0.0 - - - - - - -
29/03:00pm 22.9 E 5 9 1018.3 - 0.0 - - - - - - -
29/02:30pm 22.7 E 3 5 1018.4 - 0.0 - - - - - - -
29/02:00pm 23.3 E 3 8 1018.7 - 0.0 - - - - - - -
29/01:30pm 23.2 ESE 5 9 1019.0 - 0.0 - - - - - - -
29/01:00pm 23.5 ENE 6 10 1019.4 - 0.0 - - - - - - -
29/12:30pm 22.6 SSE 7 10 1019.8 - 0.0 - - - - - - -
29/12:00pm 22.1 SE 6 10 1020.6 - 0.0 - - - - - - -
29/11:30am 21.5 SSE 6 8 1021.2 - 0.0 - - - - - - -
29/11:00am 20.7 SE 7 11 1021.9 - 0.0 - - - - - - -
29/10:30am 20.1 S 8 11 1022.1 - 0.0 - - - - - - -
29/10:00am 19.3 SSE 8 11 1022.3 - 0.0 - - - - - - -
29/09:30am 17.7 S 7 9 1022.5 - 0.0 - - - - - - -
29/09:00am 17.0 S 7 11 1022.7 - 0.0 - - - - - - -
29/08:30am 15.5 S 7 11 1022.5 - 0.0 - - - - - - -
29/08:00am 14.6 SSE 6 9 1022.4 - 0.0 - - - - - - -
29/07:30am 13.6 SSE 5 9 1022.2 - 0.0 - - - - - - -
29/07:00am 8.8 SW 2 3 1022.0 - 0.0 - - - - - - -
29/06:30am 8.8 SW 2 3 1021.6 - 0.0 - - - - - - -
29/06:00am 8.7 SW 3 4 1021.3 - 0.0 - - - - - - -
29/05:30am 8.6 SSW 3 4 1021.0 - 0.0 - - - - - - -
29/05:00am 8.0 SW 4 4 1020.8 - 0.0 - - - - - - -
29/04:30am 7.7 SSW 4 4 1020.7 - 0.0 - - - - - - -
29/04:00am 8.3 SW 3 4 1020.8 - 0.0 - - - - - - -
29/03:30am 9.3 SSW 4 5 1020.9 - 0.0 - - - - - - -
29/03:00am 8.5 SSW 3 4 1020.8 - 0.0 - - - - - - -
29/02:30am 9.8 SW 3 4 1020.9 - 0.0 - - - - - - -
29/02:00am 9.4 SW 3 4 1021.1 - 0.0 - - - - - - -
29/01:30am 10.2 SW 4 5 1021.4 - 0.0 - - - - - - -
29/01:00am 10.3 SW 4 5 1021.8 - 0.0 - - - - - - -
29/12:30am 9.6 SW 3 4 1022.1 - 0.0 - - - - - - -
29/12:00am 9.4 CALM 0 0 1022.3 - 0.0 - - - - - - -
 
Date/Time
EST
Temp
°C
Wind Pressure Rain since
9am
mm
Weather Cloud Vis
km
Sea
Height
m
Swell
Dir  Spd
kts
Gust
kts
hPa Trend Height
m
Period
s
Dir
28/11:30pm 9.9 WSW 3 4 1022.4 - 0.0 - - - - - - -
28/11:00pm 10.1 S 1 4 1022.4 - 0.0 - - - - - - -
28/10:30pm 11.0 S 3 4 1022.4 - 0.0 - - - - - - -
28/10:00pm 11.5 CALM 0 4 1022.6 - 0.0 - - - - - - -
28/09:30pm 11.2 CALM 0 0 1022.5 - 0.0 - - - - - - -
28/09:00pm 12.4 CALM 0 0 1022.4 - 0.0 - - - - - - -
28/08:30pm 12.9 CALM 0 0 1022.3 - 0.0 - - - - - - -
28/08:00pm 13.3 CALM 0 0 1022.2 - 0.0 - - - - - - -
28/07:30pm 14.0 CALM 0 0 1021.9 - 0.0 - - - - - - -
28/07:00pm 15.5 S 1 3 1021.7 - 0.0 - - - - - - -
28/06:30pm 16.0 S 2 3 1021.4 - 0.0 - - - - - - -
28/06:00pm 17.3 S 3 4 1021.1 - 0.0 - - - - - - -
28/05:30pm 19.9 S 5 7 1020.7 - 0.0 - - - - - - -
28/05:00pm 21.1 S 5 8 1020.5 - 0.0 - - - - - - -
28/04:30pm 21.5 SSE 5 8 1020.2 - 0.0 - - - - - - -
28/04:00pm 21.7 S 6 9 1020.0 - 0.0 - - - - - - -
28/03:30pm 21.6 S 8 12 1020.0 - 0.0 - - - - - - -
28/03:00pm 21.9 S 7 11 1020.1 - 0.0 - - - - - - -
28/02:30pm 21.8 S 9 13 1020.2 - 0.0 - - - - - - -
28/02:00pm 21.8 S 7 11 1020.7 - 0.0 - - - - - - -
28/01:30pm 21.4 SSE 9 13 1021.0 - 0.0 - - - - - - -
28/01:00pm 21.0 S 9 14 1021.5 - 0.0 - - - - - - -
28/12:30pm 20.7 S 9 15 1022.1 - 0.0 - - - - - - -
28/12:00pm 20.7 SSE 9 14 1022.5 - 0.0 - - - - - - -
28/11:30am 19.7 S 9 16 1023.0 - 0.0 - - - - - - -
28/11:00am 20.0 SSE 9 16 1023.4 - 0.0 - - - - - - -
28/10:30am 19.6 SSE 11 20 1023.6 - 0.0 - - - - - - -
28/10:00am 19.0 S 8 13 1023.9 - 0.0 - - - - - - -
28/09:30am 17.6 S 8 12 1024.0 - 0.0 - - - - - - -
28/09:00am 16.5 S 8 12 1024.0 - 0.0 - - - - - - -

Other Formats:

Comma delimited format used in spreadsheet applications
http://www.bom.gov.au/fwo/IDQ60701/IDQ60701.95369.axf

JavaScript Object Notation format (JSON) in row-major order
http://www.bom.gov.au/fwo/IDQ60701/IDQ60701.95369.json